Espanola, Canada
Current Conditions -  °F | °C
As of 4:18 PM on Sunday 23 Nov 2014 (Local Time) from CYZE Reporting Station
Light Rain Light Rain  
Wind Chill: 36°   Ceiling: 300
Heat Index: 43°   Visibility: 1.7mi
Dew Point: 41°   Wind: 14mph
Humidity: 93%   Direction: 160°SSE
Pressure: 29.67"   Gusts: 20mph
Location:  46.25°N, 81.77°W
Report Text: CYZE 232118Z AUTO 16012G17KT 1 3/4SM -RA BR OVC003 06/05 A2967 RMK SLP052
Loading
Personal Weather Stations






























Interactive Weather Map New forecast layout! Learn more

10-Day Weather Forecast

Advertisements
Track Severe Weather on mobile